Time;durP1;ratioP1;P1;durP2;ratioP2;P2;SDS_P1;SDS_P2;PMS_P1;PMS_P2;Temp;Humidity;BMP_temperature;BMP_pressure;BME280_temperature;BME280_humidity;BME280_pressure;Samples;Min_cycle;Max_cycle;Signal;HPM_P1;HPM_P2
2021/06/02 00:01:07;;;;;;;4.80;4.50;;;;;;;10.51;77.08;97922.63;4983616;28;20213;-71
2021/06/02 00:03:41;;;;;;;5.80;5.30;;;;;;;10.53;77.38;97927.78;4980646;28;20225;-69
2021/06/02 00:06:09;;;;;;;4.63;4.33;;;;;;;10.45;77.43;97925.13;4979711;28;20229;-70
2021/06/02 00:08:38;;;;;;;5.43;5.00;;;;;;;10.36;78.20;97926.91;4980033;28;20445;-71
2021/06/02 00:11:06;;;;;;;5.03;4.63;;;;;;;10.04;79.67;97926.72;4982892;28;20590;-71
2021/06/02 00:13:36;;;;;;;6.40;5.80;;;;;;;10.09;81.36;97927.03;4984238;28;20233;-71
2021/06/02 00:16:03;;;;;;;5.47;4.97;;;;;;;9.99;82.02;97921.03;4980249;28;20209;-70
2021/06/02 00:18:31;;;;;;;5.63;5.13;;;;;;;10.07;81.96;97931.69;4982081;28;20699;-70
2021/06/02 00:20:58;;;;;;;6.13;5.57;;;;;;;10.04;82.20;97925.88;4980098;28;20213;-71
2021/06/02 00:23:26;;;;;;;5.33;4.83;;;;;;;9.91;82.04;97926.31;4982944;28;20353;-71
2021/06/02 00:25:53;;;;;;;5.13;4.83;;;;;;;9.73;82.52;97924.63;4983129;28;20701;-71
2021/06/02 00:28:21;;;;;;;5.63;5.07;;;;;;;9.73;83.25;97931.72;4981460;28;20212;-71
2021/06/02 00:30:51;;;;;;;5.17;4.73;;;;;;;9.70;83.84;97928.41;4983031;28;20210;-71
2021/06/02 00:33:19;;;;;;;5.37;4.97;;;;;;;9.67;84.21;97928.72;4980117;28;20206;-70
2021/06/02 00:35:46;;;;;;;5.63;5.03;;;;;;;9.62;84.16;97923.09;4982656;28;20205;-72
2021/06/02 00:38:14;;;;;;;4.73;4.43;;;;;;;9.55;85.23;97930.84;4982399;28;20215;-70
2021/06/02 00:40:44;;;;;;;5.23;4.90;;;;;;;9.75;83.19;97929.75;4983648;28;20221;-71
2021/06/02 00:43:14;;;;;;;5.30;5.00;;;;;;;9.75;83.72;97935.03;4982989;28;20761;-68
2021/06/02 00:45:43;;;;;;;5.93;4.93;;;;;;;9.62;83.78;97936.31;4982407;28;20210;-71
2021/06/02 00:48:15;;;;;;;5.23;4.83;;;;;;;9.51;84.98;97928.69;4980879;28;20236;-71
2021/06/02 00:50:44;;;;;;;5.60;5.27;;;;;;;9.40;85.48;97925.31;4982212;28;20205;-71
2021/06/02 00:53:12;;;;;;;5.00;4.67;;;;;;;9.37;86.40;97922.97;4983117;28;20678;-71
2021/06/02 00:55:41;;;;;;;5.60;5.20;;;;;;;9.41;85.92;97928.81;4979828;28;20205;-69
2021/06/02 00:58:10;;;;;;;5.63;5.13;;;;;;;9.38;85.54;97929.94;4982341;28;20304;-71
2021/06/02 01:00:38;;;;;;;5.03;4.67;;;;;;;9.35;85.98;97929.44;4982546;28;20236;-69
2021/06/02 01:03:07;;;;;;;6.13;5.10;;;;;;;9.43;85.92;97936.56;4982959;28;20208;-71
2021/06/02 01:05:36;;;;;;;5.43;4.93;;;;;;;9.42;85.97;97941.03;4981735;28;20380;-71
2021/06/02 01:08:04;;;;;;;6.67;6.00;;;;;;;9.47;85.77;97936.09;4982905;28;20225;-69
2021/06/02 01:10:32;;;;;;;5.60;5.20;;;;;;;9.51;84.72;97940.09;4979770;28;21400;-69
2021/06/02 01:13:00;;;;;;;6.27;5.87;;;;;;;9.45;85.56;97942.53;4978879;28;20221;-72
2021/06/02 01:15:27;;;;;;;5.00;4.60;;;;;;;9.49;85.24;97943.88;4982088;28;20225;-71
2021/06/02 01:17:55;;;;;;;5.13;4.80;;;;;;;9.39;85.97;97941.34;4982544;28;20213;-71
2021/06/02 01:20:24;;;;;;;5.57;5.13;;;;;;;9.52;85.27;97943.56;4981639;28;20217;-70
2021/06/02 01:22:53;;;;;;;5.87;5.37;;;;;;;9.39;86.33;97944.81;4979138;28;21314;-71
2021/06/02 01:25:22;;;;;;;5.27;4.87;;;;;;;9.50;85.63;97940.25;4982033;28;20233;-71
2021/06/02 01:27:49;;;;;;;5.63;5.20;;;;;;;9.53;85.40;97943.41;4982430;28;20237;-71
2021/06/02 01:30:19;;;;;;;5.00;4.70;;;;;;;9.55;85.62;97940.59;4980834;28;20201;-68
2021/06/02 01:33:04;;;;;;;5.63;5.13;;;;;;;9.47;85.42;97938.75;4981411;28;20210;-71
2021/06/02 01:35:46;;;;;;;5.67;5.17;;;;;;;9.35;85.70;97940.00;4980953;28;20319;-71
2021/06/02 01:38:46;;;;;;;5.70;5.03;;;;;;;9.39;85.80;97941.34;4980940;28;20300;-69
2021/06/02 01:41:27;;;;;;;5.47;5.03;;;;;;;9.21;86.89;97939.59;4977909;28;20205;-69
2021/06/02 01:44:31;;;;;;;5.40;5.00;;;;;;;9.03;88.87;97944.13;4982106;28;20225;-71
2021/06/02 01:47:21;;;;;;;5.23;4.87;;;;;;;9.05;88.68;97945.59;4979009;28;20232;-69
2021/06/02 01:50:04;;;;;;;5.20;4.80;;;;;;;9.07;89.18;97948.09;4980533;28;20212;-71
2021/06/02 01:53:03;;;;;;;5.27;4.77;;;;;;;9.01;88.84;97943.44;4980013;28;20579;-72
2021/06/02 01:56:08;;;;;;;6.03;5.43;;;;;;;9.05;88.49;97939.50;4981410;28;20706;-71
2021/06/02 01:58:53;;;;;;;5.70;5.30;;;;;;;9.00;88.88;97944.44;4902088;29;20295;-71
2021/06/02 02:01:41;;;;;;;5.07;4.70;;;;;;;8.76;90.30;97940.63;4973953;28;20218;-71
2021/06/02 02:04:29;;;;;;;5.77;5.37;;;;;;;8.65;91.95;97949.63;4978530;28;20236;-71
2021/06/02 02:07:14;;;;;;;6.03;5.53;;;;;;;8.53;93.02;97952.50;4981076;28;20729;-71
2021/06/02 02:09:54;;;;;;;5.40;5.00;;;;;;;8.63;92.59;97952.44;4978309;28;20205;-71
2021/06/02 02:12:30;;;;;;;5.90;5.40;;;;;;;8.45;93.93;97948.91;4981306;28;20432;-71
2021/06/02 02:15:08;;;;;;;6.17;5.57;;;;;;;8.33;94.46;97953.59;4979112;28;20229;-71
2021/06/02 02:18:11;;;;;;;5.13;4.83;;;;;;;8.38;94.06;97948.72;4981315;28;20682;-70
2021/06/02 02:20:42;;;;;;;6.50;5.90;;;;;;;8.45;92.83;97947.13;4979018;28;20264;-72
2021/06/02 02:23:19;;;;;;;6.60;6.00;;;;;;;8.60;91.55;97957.16;4980722;28;20213;-70
2021/06/02 02:25:53;;;;;;;5.93;5.43;;;;;;;8.58;91.56;97959.97;4980324;28;20812;-71
2021/06/02 02:28:47;;;;;;;5.57;5.17;;;;;;;8.35;93.32;97963.03;4984107;28;20345;-71
2021/06/02 02:31:45;;;;;;;5.73;5.33;;;;;;;8.45;92.89;97959.47;4982172;28;20213;-71
2021/06/02 02:34:25;;;;;;;5.20;4.80;;;;;;;8.45;92.68;97962.97;4979305;28;20232;-69
2021/06/02 02:36:55;;;;;;;6.17;5.67;;;;;;;8.37;93.26;97958.44;4980825;28;20682;-71
2021/06/02 02:39:26;;;;;;;5.83;5.33;;;;;;;8.40;93.13;97965.22;4980310;28;20209;-72
2021/06/02 02:42:03;;;;;;;5.80;5.40;;;;;;;8.30;93.73;97961.81;4983189;28;20201;-68
2021/06/02 02:44:49;;;;;;;6.33;5.50;;;;;;;8.16;94.96;97960.56;4984757;28;20233;-72
2021/06/02 02:47:22;;;;;;;5.53;5.03;;;;;;;8.21;95.04;97955.66;4983163;28;20233;-71
2021/06/02 02:50:02;;;;;;;5.80;5.40;;;;;;;8.09;95.74;97960.31;4983444;28;20213;-71
2021/06/02 02:52:47;;;;;;;6.37;5.40;;;;;;;7.99;96.30;97957.72;4983423;28;20673;-72
2021/06/02 02:55:17;;;;;;;6.40;5.90;;;;;;;8.03;96.05;97964.34;4982939;28;20380;-71
2021/06/02 02:57:49;;;;;;;6.57;5.87;;;;;;;8.05;96.07;97967.69;4983104;28;20206;-72
2021/06/02 03:00:18;;;;;;;5.40;5.00;;;;;;;7.92;97.76;97975.94;4983971;28;20570;-72
2021/06/02 03:02:50;;;;;;;6.23;5.63;;;;;;;7.88;97.88;97979.03;4981842;28;20210;-72
2021/06/02 03:05:23;;;;;;;6.80;6.20;;;;;;;7.84;98.13;97973.22;4983565;28;20221;-72
2021/06/02 03:08:00;;;;;;;5.77;5.27;;;;;;;7.79;99.02;97973.69;4979446;28;20226;-72
2021/06/02 03:10:30;;;;;;;5.30;4.93;;;;;;;8.00;96.85;97974.41;4984022;28;20205;-71
2021/06/02 03:13:05;;;;;;;5.97;5.47;;;;;;;7.99;96.74;97975.38;4981614;28;20319;-71
2021/06/02 03:15:39;;;;;;;6.00;5.60;;;;;;;7.93;96.88;97980.25;4980753;28;20740;-71
2021/06/02 03:18:17;;;;;;;6.00;5.60;;;;;;;7.80;96.88;97980.63;4982192;28;20232;-70
2021/06/02 03:20:47;;;;;;;7.10;5.80;;;;;;;7.75;98.41;97982.84;4983410;28;20232;-71
2021/06/02 03:23:28;;;;;;;5.47;5.07;;;;;;;7.72;98.74;97984.94;4984846;28;20209;-68
2021/06/02 03:26:01;;;;;;;6.53;6.00;;;;;;;7.66;99.09;97989.00;4984847;28;20213;-68
2021/06/02 03:28:44;;;;;;;6.40;5.90;;;;;;;7.56;99.66;97990.84;4983426;28;20221;-69
2021/06/02 03:31:23;;;;;;;6.20;5.80;;;;;;;7.52;99.86;97991.13;4985540;28;20212;-67
2021/06/02 03:34:08;;;;;;;6.47;5.97;;;;;;;7.49;99.80;97990.59;4982942;28;20233;-68
2021/06/02 03:36:40;;;;;;;6.10;5.50;;;;;;;7.38;100.00;97997.69;4983815;28;20218;-70
2021/06/02 03:39:10;;;;;;;6.60;6.10;;;;;;;7.38;100.00;98002.13;4984397;28;20209;-70
2021/06/02 03:41:58;;;;;;;6.87;6.27;;;;;;;7.41;100.00;97999.22;4983582;28;20209;-70
2021/06/02 03:44:36;;;;;;;6.00;5.50;;;;;;;7.52;100.00;98004.31;4982889;28;20230;-70
2021/06/02 03:47:16;;;;;;;6.80;6.10;;;;;;;7.50;100.00;98003.63;4980347;28;20205;-70
2021/06/02 03:49:53;;;;;;;6.77;6.27;;;;;;;7.45;100.00;98011.16;4984251;28;20217;-70
2021/06/02 03:52:28;;;;;;;7.93;5.93;;;;;;;7.44;100.00;98011.28;4982761;28;20672;-71
2021/06/02 03:55:02;;;;;;;6.43;5.90;;;;;;;7.46;100.00;98012.81;4983565;28;20904;-72
2021/06/02 03:57:34;;;;;;;6.60;6.07;;;;;;;7.41;100.00;98017.69;4982402;28;20202;-69
2021/06/02 04:00:10;;;;;;;6.00;5.40;;;;;;;7.39;100.00;98017.00;4982528;28;20209;-71
2021/06/02 04:02:52;;;;;;;6.70;6.20;;;;;;;7.48;100.00;98017.94;4981085;28;20209;-70
2021/06/02 04:05:31;;;;;;;6.40;6.00;;;;;;;7.49;100.00;98009.03;4982664;28;20231;-70
2021/06/02 04:08:09;;;;;;;6.33;5.73;;;;;;;7.44;100.00;98014.75;4982316;28;20634;-69
2021/06/02 04:10:45;;;;;;;6.50;5.90;;;;;;;7.47;100.00;98016.25;4979952;28;20214;-72
2021/06/02 04:13:20;;;;;;;6.33;5.93;;;;;;;7.64;99.37;98004.97;4984401;28;20526;-67
2021/06/02 04:15:49;;;;;;;6.57;6.07;;;;;;;7.70;98.49;98010.66;4983454;28;20732;-71
2021/06/02 04:18:19;;;;;;;5.90;5.40;;;;;;;7.80;97.81;98007.00;4981772;28;20642;-70
2021/06/02 04:20:48;;;;;;;7.20;6.60;;;;;;;7.88;96.71;98011.53;4982466;28;20590;-71
2021/06/02 04:23:16;;;;;;;6.63;6.13;;;;;;;7.92;96.39;98009.44;4979444;28;20213;-69
2021/06/02 04:25:44;;;;;;;6.73;6.23;;;;;;;7.90;96.16;98012.19;4983563;28;20417;-71
2021/06/02 04:28:13;;;;;;;6.10;5.57;;;;;;;7.89;97.42;98013.19;4984040;28;20686;-68
2021/06/02 04:30:48;;;;;;;7.90;6.30;;;;;;;7.79;97.97;98013.25;4981892;28;20205;-68
2021/06/02 04:33:17;;;;;;;7.00;6.43;;;;;;;7.75;98.12;98016.31;4981532;28;20323;-70
2021/06/02 04:35:51;;;;;;;6.60;6.10;;;;;;;7.79;99.11;98017.69;4982527;28;20213;-72
2021/06/02 04:38:20;;;;;;;6.73;6.23;;;;;;;7.63;100.00;98003.31;4980334;28;20204;-71
2021/06/02 04:40:47;;;;;;;6.20;5.70;;;;;;;7.91;98.22;98013.88;4983250;28;20206;-71
2021/06/02 04:43:15;;;;;;;6.60;6.03;;;;;;;8.00;97.14;98008.72;4978979;28;20212;-68
2021/06/02 04:45:54;;;;;;;7.43;6.83;;;;;;;8.02;97.02;98022.59;4978497;28;20206;-70
2021/06/02 04:48:22;;;;;;;7.03;6.43;;;;;;;8.00;97.11;98022.72;4982288;28;20234;-69
2021/06/02 04:50:56;;;;;;;6.60;6.20;;;;;;;7.96;98.01;98013.44;4981432;28;20542;-70
2021/06/02 04:53:46;;;;;;;6.37;5.97;;;;;;;7.91;98.73;98021.78;4982722;28;20216;-70
2021/06/02 04:56:39;;;;;;;6.80;6.30;;;;;;;8.02;97.57;98019.94;4980196;28;20206;-69
2021/06/02 04:59:33;;;;;;;7.90;7.17;;;;;;;8.02;97.35;98023.41;4981785;28;20689;-68
2021/06/02 05:02:18;;;;;;;6.97;6.30;;;;;;;7.88;98.44;98023.91;4981025;28;20224;-68
2021/06/02 05:05:23;;;;;;;6.93;6.43;;;;;;;7.93;98.12;98029.56;4981831;28;20225;-67
2021/06/02 05:11:17;;;;;;;7.50;6.93;;;;;;;8.05;96.68;98028.38;5142465;27;20943;-68
2021/06/02 05:14:15;;;;;;;7.43;6.73;;;;;;;8.05;97.89;98033.66;5113718;27;20257;-67
2021/06/02 05:17:01;;;;;;;7.17;6.50;;;;;;;8.16;97.01;98037.91;5134335;27;20727;-67
2021/06/02 05:20:00;;;;;;;7.00;6.40;;;;;;;8.43;94.54;98036.22;5129865;27;20211;-67
2021/06/02 05:23:09;;;;;;;7.50;6.80;;;;;;;8.36;95.09;98045.75;5136114;27;20223;-66
2021/06/02 05:26:17;;;;;;;8.30;7.50;;;;;;;8.33;95.67;98043.38;5136941;27;20219;-67
2021/06/02 05:29:28;;;;;;;7.97;7.30;;;;;;;8.40;95.22;98047.91;5136158;27;20228;-67
2021/06/02 05:32:19;;;;;;;6.77;6.17;;;;;;;8.62;94.00;98056.44;5070542;28;20217;-67
2021/06/02 05:35:37;;;;;;;8.20;7.40;;;;;;;8.85;92.31;98050.69;5073427;28;20223;-66
2021/06/02 05:38:42;;;;;;;7.77;6.97;;;;;;;8.92;91.23;98054.41;5042126;27;20212;-67
2021/06/02 05:41:11;;;;;;;7.73;7.13;;;;;;;9.03;90.72;98053.31;5134574;27;20196;-68
2021/06/02 05:44:13;;;;;;;7.93;7.23;;;;;;;9.11;89.99;98053.41;5130684;27;20227;-67
2021/06/02 05:47:25;;;;;;;7.23;6.53;;;;;;;9.38;88.60;98056.06;5129010;27;20286;-67
2021/06/02 05:50:18;;;;;;;8.00;7.40;;;;;;;9.60;86.73;98054.72;5121232;27;20216;-68
2021/06/02 05:53:23;;;;;;;9.37;8.57;;;;;;;9.85;84.07;98055.69;5131620;27;20208;-67
2021/06/02 05:56:22;;;;;;;7.60;7.10;;;;;;;9.89;83.47;98048.25;5130090;27;20211;-68
2021/06/02 05:59:02;;;;;;;7.83;7.20;;;;;;;9.88;83.67;98059.84;5135380;27;20447;-68
2021/06/02 06:01:58;;;;;;;8.30;7.70;;;;;;;10.17;81.07;98063.09;5130253;27;20633;-67
2021/06/02 06:05:13;;;;;;;7.77;7.23;;;;;;;10.34;79.91;98056.84;5133141;27;20221;-65
2021/06/02 06:08:22;;;;;;;7.80;7.20;;;;;;;10.27;80.25;98066.44;5131760;27;20575;-69
2021/06/02 06:11:41;;;;;;;8.17;7.43;;;;;;;10.53;79.46;98069.03;5138179;27;20227;-69
2021/06/02 06:14:44;;;;;;;8.03;7.30;;;;;;;10.66;79.70;98068.56;5065542;28;20610;-68
2021/06/02 06:17:33;;;;;;;8.60;7.70;;;;;;;10.58;80.28;98071.22;5127790;27;20200;-66
2021/06/02 06:20:19;;;;;;;7.63;7.13;;;;;;;10.68;79.75;98069.22;5129120;27;20196;-68
2021/06/02 06:23:26;;;;;;;7.57;7.07;;;;;;;10.76;79.13;98055.16;5123490;27;20683;-68
2021/06/02 06:25:57;;;;;;;8.93;7.97;;;;;;;10.97;79.30;98062.66;5124544;27;20204;-70
2021/06/02 06:28:31;;;;;;;8.87;8.07;;;;;;;11.24;78.10;98067.78;5123985;27;20192;-69
2021/06/02 06:30:58;;;;;;;9.13;8.33;;;;;;;11.49;77.50;98063.28;5115731;27;20231;-69
2021/06/02 06:33:27;;;;;;;9.40;8.60;;;;;;;11.87;75.13;98060.88;5116767;27;20235;-69
2021/06/02 06:35:55;;;;;;;12.43;8.53;;;;;;;11.98;74.81;98056.22;5119547;27;20197;-69
2021/06/02 06:38:28;;;;;;;8.87;8.10;;;;;;;12.25;73.56;98059.44;5116129;27;20201;-69
2021/06/02 06:40:56;;;;;;;8.57;7.67;;;;;;;12.28;73.62;98057.28;5120572;27;20303;-69
2021/06/02 06:43:23;;;;;;;9.57;8.73;;;;;;;12.53;72.60;98062.47;5117531;27;20446;-69
2021/06/02 06:45:54;;;;;;;9.20;8.30;;;;;;;12.65;72.19;98062.88;5118810;27;20684;-69
2021/06/02 06:48:22;;;;;;;8.50;7.60;;;;;;;13.26;69.45;98063.97;5116204;27;20208;-70
2021/06/02 06:50:54;;;;;;;9.30;7.90;;;;;;;13.41;68.19;98055.97;5114719;27;21117;-69
2021/06/02 06:53:22;;;;;;;8.73;7.97;;;;;;;13.53;67.77;98054.59;5115920;27;20204;-68
2021/06/02 06:55:51;;;;;;;8.40;7.50;;;;;;;13.74;65.59;98055.69;5121941;27;20201;-69
2021/06/02 06:58:20;;;;;;;7.97;7.37;;;;;;;13.93;65.38;98058.84;5110997;27;20658;-67
2021/06/02 07:00:48;;;;;;;8.07;7.37;;;;;;;14.10;63.75;98049.63;5121262;27;20205;-70
2021/06/02 07:03:17;;;;;;;8.90;8.10;;;;;;;14.44;62.09;98060.72;5117904;27;20195;-66
2021/06/02 07:05:44;;;;;;;12.40;7.87;;;;;;;14.55;60.63;98057.56;5116553;27;20201;-69
2021/06/02 07:08:12;;;;;;;8.73;7.00;;;;;;;14.60;61.82;98052.47;5116825;27;20203;-68
2021/06/02 07:10:40;;;;;;;6.27;5.77;;;;;;;14.91;59.64;98047.88;5116602;27;20217;-66
2021/06/02 07:13:08;;;;;;;7.30;6.60;;;;;;;15.15;58.37;98049.34;5118861;27;20556;-65
2021/06/02 07:15:36;;;;;;;11.70;7.23;;;;;;;15.41;58.35;98049.75;5126017;27;20492;-68
2021/06/02 07:18:04;;;;;;;6.77;6.17;;;;;;;15.71;56.62;98044.19;5116866;27;20214;-66
2021/06/02 07:20:35;;;;;;;8.93;5.57;;;;;;;15.77;56.69;98046.09;5117328;27;20219;-68
2021/06/02 07:23:03;;;;;;;8.17;5.60;;;;;;;15.81;57.34;98039.34;5117863;27;20289;-68
2021/06/02 07:25:31;;;;;;;9.63;4.90;;;;;;;16.09;56.33;98049.16;5118923;27;20243;-66
2021/06/02 07:28:02;;;;;;;11.63;5.73;;;;;;;16.28;55.28;98041.44;5119796;27;20208;-68
2021/06/02 07:30:30;;;;;;;15.70;5.40;;;;;;;16.50;54.98;98034.09;5114628;27;20605;-68
2021/06/02 07:32:57;;;;;;;9.87;5.57;;;;;;;16.71;54.08;98038.47;5121942;27;20212;-67
2021/06/02 07:35:25;;;;;;;7.00;4.50;;;;;;;16.89;53.14;98031.75;5119503;27;20743;-67
2021/06/02 07:37:54;;;;;;;4.33;4.03;;;;;;;17.25;51.00;98032.41;5121787;27;20204;-68
2021/06/02 07:40:21;;;;;;;4.67;2.93;;;;;;;17.55;48.76;98032.78;5122070;27;20201;-67
2021/06/02 07:42:49;;;;;;;4.93;3.50;;;;;;;17.64;48.65;98036.91;5118950;27;20204;-67
2021/06/02 07:45:18;;;;;;;2.97;2.80;;;;;;;17.99;45.95;98034.94;5116696;27;20228;-68
2021/06/02 07:47:46;;;;;;;5.40;2.77;;;;;;;18.31;44.19;98037.75;5120104;27;20201;-69
2021/06/02 07:50:14;;;;;;;4.90;2.63;;;;;;;18.56;42.74;98037.88;5116534;27;20725;-67
2021/06/02 07:52:41;;;;;;;5.67;3.20;;;;;;;18.42;41.77;98033.59;5118019;27;20453;-71
2021/06/02 07:55:11;;;;;;;4.87;3.00;;;;;;;18.50;41.38;98036.84;5118888;27;20225;-70
2021/06/02 07:57:39;;;;;;;3.67;2.30;;;;;;;18.51;41.00;98037.66;5114421;27;20197;-68
2021/06/02 08:00:07;;;;;;;3.90;3.60;;;;;;;18.83;40.08;98036.88;5116896;27;20205;-70
2021/06/02 08:02:35;;;;;;;2.63;2.53;;;;;;;18.88;40.20;98032.47;5119365;27;20212;-68
2021/06/02 08:05:02;;;;;;;2.73;2.53;;;;;;;18.98;39.56;98042.78;5120149;27;20228;-69
2021/06/02 08:07:40;;;;;;;4.10;2.90;;;;;;;19.11;40.44;98043.72;5116072;27;20200;-70
2021/06/02 08:10:08;;;;;;;2.60;2.40;;;;;;;19.08;39.89;98045.81;5119735;27;20225;-68
2021/06/02 08:12:37;;;;;;;3.37;2.33;;;;;;;19.23;40.27;98047.38;5117864;27;20197;-68
2021/06/02 08:15:08;;;;;;;3.60;2.70;;;;;;;19.22;39.86;98043.03;5127926;27;20220;-70
2021/06/02 08:17:35;;;;;;;3.10;2.30;;;;;;;19.45;39.86;98038.91;5117750;27;20205;-68
2021/06/02 08:20:04;;;;;;;2.43;2.33;;;;;;;19.44;39.42;98035.41;5119510;27;20267;-69
2021/06/02 08:22:32;;;;;;;5.07;2.87;;;;;;;19.62;39.61;98045.38;5114383;27;20205;-69
2021/06/02 08:25:01;;;;;;;3.27;2.57;;;;;;;19.72;38.43;98031.44;5109947;27;20213;-69
2021/06/02 08:27:29;;;;;;;2.70;2.50;;;;;;;19.72;38.82;98038.66;5116267;27;20208;-68
2021/06/02 08:29:57;;;;;;;2.73;2.53;;;;;;;19.66;37.96;98041.19;5112406;27;20234;-69
2021/06/02 08:32:25;;;;;;;3.47;2.50;;;;;;;19.78;37.88;98035.91;5115267;27;20201;-69
2021/06/02 08:34:53;;;;;;;2.30;2.10;;;;;;;19.82;38.29;98028.19;5118917;27;20221;-71
2021/06/02 08:37:21;;;;;;;5.33;2.87;;;;;;;20.01;38.57;98036.31;5117044;27;20232;-69
2021/06/02 08:39:51;;;;;;;3.50;2.50;;;;;;;20.20;36.97;98027.19;5121440;27;20653;-70
2021/06/02 08:42:19;;;;;;;2.20;2.10;;;;;;;20.16;36.72;98031.38;5119992;27;20217;-69
2021/06/02 08:44:46;;;;;;;3.63;2.50;;;;;;;20.17;36.25;98033.00;5116269;27;20218;-68
2021/06/02 08:47:15;;;;;;;3.00;2.30;;;;;;;20.24;36.18;98030.25;5118398;27;20545;-66
2021/06/02 08:49:43;;;;;;;4.10;2.40;;;;;;;20.37;36.27;98032.75;5120803;27;20208;-66
2021/06/02 08:52:10;;;;;;;2.53;2.13;;;;;;;20.65;36.02;98031.38;5116738;27;20211;-71
2021/06/02 08:54:38;;;;;;;2.43;2.20;;;;;;;20.74;34.98;98029.19;5120290;27;20220;-68
2021/06/02 08:57:08;;;;;;;2.60;2.40;;;;;;;20.92;33.90;98035.56;5112402;27;20645;-69
2021/06/02 08:59:36;;;;;;;2.73;2.53;;;;;;;20.65;34.89;98036.75;5114535;27;20209;-66
2021/06/02 09:02:04;;;;;;;2.33;2.10;;;;;;;20.53;35.10;98034.00;5112468;27;20781;-68
2021/06/02 09:04:34;;;;;;;7.77;2.83;;;;;;;20.78;34.34;98026.84;5114589;27;20236;-68
2021/06/02 09:07:04;;;;;;;3.63;2.80;;;;;;;20.66;34.82;98030.31;5116823;27;20530;-69
2021/06/02 09:09:33;;;;;;;3.90;3.07;;;;;;;20.87;34.72;98027.38;5112827;27;20223;-68
2021/06/02 09:12:06;;;;;;;3.20;2.27;;;;;;;20.93;34.43;98031.81;5111219;27;20254;-66
2021/06/02 09:14:37;;;;;;;4.40;2.37;;;;;;;20.79;34.35;98029.34;5115353;27;20738;-68
2021/06/02 09:17:06;;;;;;;2.70;2.20;;;;;;;20.96;33.85;98034.06;5113831;27;20278;-68
2021/06/02 09:19:37;;;;;;;4.70;2.53;;;;;;;21.24;34.17;98035.28;5113690;27;20213;-67
2021/06/02 09:22:06;;;;;;;4.60;2.70;;;;;;;21.18;33.73;98038.91;5116965;27;20205;-66
2021/06/02 09:25:02;;;;;;;6.00;2.43;;;;;;;21.28;32.79;98041.03;5121483;27;20229;-72
2021/06/02 09:27:45;;;;;;;2.60;2.43;;;;;;;21.51;33.21;98045.63;5097092;27;20204;-69
2021/06/02 09:30:15;;;;;;;2.37;2.27;;;;;;;21.31;33.72;98041.38;5110940;27;20224;-68
2021/06/02 09:32:47;;;;;;;3.87;2.50;;;;;;;21.32;34.05;98045.72;5114922;27;20205;-71
2021/06/02 09:35:16;;;;;;;2.23;2.13;;;;;;;21.56;32.31;98048.44;5114906;27;20798;-68
2021/06/02 09:37:47;;;;;;;3.87;2.97;;;;;;;21.73;31.82;98040.50;5117022;27;20206;-70
2021/06/02 09:40:26;;;;;;;5.63;2.70;;;;;;;21.89;32.42;98040.81;5117375;27;20304;-69
2021/06/02 09:42:55;;;;;;;2.23;2.13;;;;;;;22.06;33.67;98028.25;5116043;27;20559;-68
2021/06/02 09:45:23;;;;;;;4.77;2.43;;;;;;;22.20;32.57;98034.22;5118390;27;20220;-69
2021/06/02 09:47:51;;;;;;;2.70;2.50;;;;;;;22.53;31.59;98030.00;5121981;27;20215;-67
2021/06/02 09:50:26;;;;;;;4.17;2.67;;;;;;;22.59;32.87;98025.53;5115624;27;20231;-68
2021/06/02 09:52:55;;;;;;;2.87;2.40;;;;;;;22.71;31.57;98033.56;5112302;27;20201;-70
2021/06/02 09:55:23;;;;;;;2.10;1.90;;;;;;;22.59;30.68;98032.81;5118926;27;20240;-69
2021/06/02 09:57:56;;;;;;;2.27;2.17;;;;;;;22.87;30.23;98036.53;5120877;27;20461;-67
2021/06/02 10:00:41;;;;;;;2.00;1.90;;;;;;;22.97;30.91;98039.44;5118692;27;20261;-69
2021/06/02 10:03:10;;;;;;;2.10;2.00;;;;;;;23.39;29.02;98036.38;5119503;27;20377;-68
2021/06/02 10:05:40;;;;;;;4.23;2.30;;;;;;;23.52;27.78;98035.22;5122554;27;20227;-66
2021/06/02 10:08:10;;;;;;;3.10;2.10;;;;;;;23.19;28.31;98027.91;5117275;27;20560;-70
2021/06/02 10:10:38;;;;;;;2.10;2.00;;;;;;;22.92;30.17;98032.06;5115786;27;20221;-69
2021/06/02 10:13:07;;;;;;;2.87;2.57;;;;;;;22.75;30.11;98021.22;5118920;27;20618;-66
2021/06/02 10:15:36;;;;;;;2.67;2.57;;;;;;;22.91;30.28;98019.63;5114264;27;20358;-68
2021/06/02 10:18:05;;;;;;;2.60;2.40;;;;;;;23.01;28.92;98028.94;5123671;27;20248;-68
2021/06/02 10:20:32;;;;;;;2.60;2.50;;;;;;;23.06;29.21;98031.72;5121266;27;20211;-70
2021/06/02 10:23:01;;;;;;;2.77;2.57;;;;;;;23.09;28.62;98032.06;5113859;27;20207;-70
2021/06/02 10:25:29;;;;;;;2.17;2.00;;;;;;;23.40;27.75;98029.91;5121160;27;20545;-69
2021/06/02 10:27:58;;;;;;;2.67;2.47;;;;;;;24.01;26.32;98035.63;5116155;27;20200;-70
2021/06/02 10:30:27;;;;;;;2.43;2.20;;;;;;;23.75;28.10;98030.66;5121005;27;20244;-68
2021/06/02 10:32:56;;;;;;;2.60;2.17;;;;;;;23.82;28.11;98025.88;5118052;27;20230;-67
2021/06/02 10:35:23;;;;;;;1.93;1.73;;;;;;;23.61;27.19;98022.06;5122224;27;20219;-71
2021/06/02 10:37:54;;;;;;;3.47;1.80;;;;;;;23.67;26.21;98025.69;5117357;27;20490;-69
2021/06/02 10:40:24;;;;;;;2.47;2.27;;;;;;;23.51;26.93;98030.88;5121338;27;20206;-69
2021/06/02 10:42:57;;;;;;;2.30;2.10;;;;;;;23.78;25.92;98032.06;5121236;27;20206;-70
2021/06/02 10:45:27;;;;;;;2.40;2.17;;;;;;;23.85;25.37;98024.56;5119385;27;20221;-69
2021/06/02 10:47:56;;;;;;;5.40;2.30;;;;;;;24.01;26.07;98030.22;5119159;27;20723;-69
2021/06/02 10:50:38;;;;;;;7.93;2.60;;;;;;;24.11;24.74;98033.06;5126512;27;20204;-69
2021/06/02 10:53:23;;;;;;;2.20;2.00;;;;;;;23.85;26.57;98038.91;5122234;27;20208;-69
2021/06/02 10:55:53;;;;;;;2.57;2.20;;;;;;;23.98;26.86;98031.50;5118226;27;20728;-69
2021/06/02 10:58:25;;;;;;;3.57;2.50;;;;;;;24.31;26.51;98027.06;5119143;27;20395;-70
2021/06/02 11:01:09;;;;;;;2.13;2.03;;;;;;;24.86;26.06;98027.13;5117166;27;20209;-70
2021/06/02 11:03:37;;;;;;;2.97;2.03;;;;;;;25.88;23.84;98021.94;5119656;27;20200;-71
2021/06/02 11:06:40;;;;;;;2.07;1.87;;;;;;;26.15;24.66;98010.91;5117499;27;20621;-70
2021/06/02 11:09:21;;;;;;;2.70;2.17;;;;;;;26.41;23.79;98016.47;5111856;27;20209;-69
2021/06/02 11:12:03;;;;;;;4.33;1.90;;;;;;;26.90;22.45;98017.13;5121175;27;20494;-70
2021/06/02 11:14:31;;;;;;;2.10;1.87;;;;;;;26.74;22.43;98011.66;5115961;27;20253;-70
2021/06/02 11:17:02;;;;;;;2.43;1.73;;;;;;;27.36;22.19;98017.13;5119660;27;20209;-69
2021/06/02 11:19:35;;;;;;;2.50;1.80;;;;;;;26.56;22.64;98010.25;5118929;27;20464;-68
2021/06/02 11:22:06;;;;;;;2.13;1.93;;;;;;;26.04;22.67;98015.47;5117283;27;20203;-68
2021/06/02 11:24:41;;;;;;;4.93;2.13;;;;;;;26.35;22.05;98018.34;5120440;27;20588;-68
2021/06/02 11:27:41;;;;;;;2.10;2.00;;;;;;;26.03;23.84;98013.03;5117654;27;20206;-68
2021/06/02 11:30:31;;;;;;;2.33;2.13;;;;;;;25.98;24.37;98011.09;5117746;27;20536;-68
2021/06/02 11:33:10;;;;;;;1.70;1.60;;;;;;;26.34;22.65;98005.84;5113595;27;20415;-68
2021/06/02 11:36:05;;;;;;;3.20;2.43;;;;;;;26.49;22.69;98007.78;5114668;27;20217;-67
2021/06/02 11:38:33;;;;;;;2.77;2.57;;;;;;;25.79;22.93;98008.84;5120855;27;20214;-66
2021/06/02 11:41:01;;;;;;;2.10;2.00;;;;;;;25.65;23.69;98013.09;5124051;27;20584;-66
2021/06/02 11:43:29;;;;;;;2.40;1.80;;;;;;;25.84;23.79;98010.75;5122276;27;20207;-66
2021/06/02 11:46:00;;;;;;;2.50;2.40;;;;;;;26.25;23.24;98018.31;5114412;27;20214;-66
2021/06/02 11:48:30;;;;;;;2.40;2.10;;;;;;;26.70;22.38;98010.53;5123380;27;20200;-69
2021/06/02 11:51:07;;;;;;;1.80;1.70;;;;;;;27.24;21.81;98009.22;5114488;27;20415;-68
2021/06/02 11:53:50;;;;;;;2.10;1.90;;;;;;;27.14;21.71;98014.69;5121727;27;20730;-67
2021/06/02 11:56:19;;;;;;;1.90;1.80;;;;;;;26.64;20.78;98017.03;5124238;27;20454;-68
2021/06/02 11:58:49;;;;;;;2.00;1.90;;;;;;;25.94;23.40;98010.81;5119276;27;20205;-68
2021/06/02 12:01:25;;;;;;;1.70;1.60;;;;;;;26.24;22.99;98009.34;5123129;27;20203;-69
2021/06/02 12:03:59;;;;;;;2.20;2.00;;;;;;;26.75;23.14;97999.69;5118305;27;20220;-66
2021/06/02 12:06:30;;;;;;;2.80;2.57;;;;;;;26.32;23.91;98004.47;5119366;27;20200;-68
2021/06/02 12:08:58;;;;;;;2.93;2.20;;;;;;;26.66;22.54;98009.44;5109269;27;20212;-69
2021/06/02 12:11:25;;;;;;;3.17;2.10;;;;;;;26.64;23.32;98011.59;5116016;27;20238;-70
2021/06/02 12:13:53;;;;;;;3.00;2.10;;;;;;;27.34;22.61;98008.41;5118570;27;20574;-70
2021/06/02 12:16:25;;;;;;;2.37;1.87;;;;;;;26.72;22.73;98005.66;5117201;27;20208;-68
2021/06/02 12:18:54;;;;;;;3.40;2.00;;;;;;;27.19;22.54;98003.78;5119275;27;20213;-70